2021-03-04 - 15:37:00

SR: 0608 - SS: 1714

RWY: 25


OBSERVATION: n/a

RVR Mean 1 min: (Runway Visual Range)
A: P2000 - B: P2000 - C: P2000
RVR Mean 10 min:
A: P2000 - B: P2000 - C: P2000
WARNING: n/a
W25: 300-350(320-04kt) 03kt-08kt
W07: 280-010(320-05kt) 03kt-07kt
OTHER: n/a

QFE: (tatsächlicher Luftdruck) 1013.3 hPa = 29.91 inHg
QNH:(Luftdruck auf Meereshöhe) 1019.1 hPa = 30.09 inHg
Temperatur: 4.5 °C
Dew point(Taupunkt): 2.0 °C

METAR:  00697 SADL31 EDDG 041520 METAR EDDG 041520Z 31005KT 270V360 9999 BKN012 05/02 Q1019 TEMPO BKN020= 
METAR (aus weather.noaa.gov):
2021/03/04 15:20 EDDG 041520Z 31005KT 270V360 9999 BKN012 05/02 Q1019 TEMPO BKN020

TAF (aus weather.noaa.gov):
2021/03/04 12:27 TAF EDDG 041100Z 0412/0512 32006KT 9000 BKN008 BECMG 0413/0416 BKN012 BECMG 0416/0419 BKN020 PROB30 TEMPO 0419/0504 4000 -DZRA BKN014 BECMG 0421/0424 02006KT
NOWCAST
306
FODL44 EDDG 041500
FODL44 EDDG 2103041505
# Nowcasting EDDG 04.03.2021 15:05 UTC
Parameter/Stunde16171819202122
Windrichtung330330330330330340350
Windgeschwindigkeit5555666
Böen--------------
Lufttemperatur 5 4 4 3 3 3 3
Taupunkt 2 2 1 1 1 1 1
Belagstemperatur 5 4 3 3 2 2 2
Wetter-vorherrschend--------------
QNH1019101910191020102010201021
Wind in 5000 ft320/15350/10010/10360/10340/10350/10010/10
Wind in 3000 ft340/15350/15340/10340/10010/15020/10040/15
Wind in 2000 ft340/10340/15350/15350/15360/15020/15030/15
Wind in 1000 ft340/10330/10350/15350/15360/15020/10010/10